createdAt,value
2022-08-05T00:01:35.698Z,53.12
2022-08-05T00:04:05.256Z,52.89
2022-08-05T00:06:36.268Z,52.75
2022-08-05T00:09:05.219Z,53.14
2022-08-05T00:11:48.276Z,53.11
2022-08-05T00:14:18.221Z,53.85
2022-08-05T00:16:52.856Z,53.55
2022-08-05T00:19:23.451Z,53.94
2022-08-05T00:21:53.977Z,53.52
2022-08-05T00:24:24.632Z,53.57
2022-08-05T00:26:53.686Z,53.45
2022-08-05T00:29:22.739Z,53.37
2022-08-05T00:32:12.615Z,53.74
2022-08-05T00:35:05.581Z,53.33
2022-08-05T00:37:51.079Z,52.38
2022-08-05T00:40:26.945Z,53.62
2022-08-05T00:42:58.289Z,52.76
2022-08-05T00:45:38.046Z,52.33
2022-08-05T00:48:11.667Z,53.99
2022-08-05T00:50:42.019Z,53.32
2022-08-05T00:54:01.003Z,52.50
2022-08-05T00:55:59.404Z,52.30
2022-08-05T00:58:27.794Z,52.47
2022-08-05T01:00:55.571Z,52.70
2022-08-05T01:03:23.545Z,52.61
2022-08-05T01:05:54.902Z,54.42
2022-08-05T01:08:41.180Z,53.11
2022-08-05T01:11:22.646Z,54.24
2022-08-05T01:13:59.829Z,55.00
2022-08-05T01:16:33.704Z,54.61
2022-08-05T01:19:14.269Z,54.86
2022-08-05T01:22:15.640Z,54.67
2022-08-05T01:24:51.441Z,52.64
2022-08-05T01:27:55.795Z,54.25
2022-08-05T01:30:33.759Z,52.69
2022-08-05T01:33:08.643Z,53.48
2022-08-05T01:35:50.585Z,52.97
2022-08-05T01:38:27.091Z,52.20
2022-08-05T01:41:01.549Z,53.51
2022-08-05T01:43:31.439Z,51.92
2022-08-05T01:46:07.411Z,51.72
2022-08-05T01:48:46.193Z,52.18
2022-08-05T01:51:19.402Z,51.60
2022-08-05T01:53:57.781Z,51.31
2022-08-05T01:58:12.358Z,51.72
2022-08-05T01:59:23.791Z,50.56
2022-08-05T02:01:56.596Z,50.92
2022-08-05T02:04:29.946Z,50.63
2022-08-05T02:06:59.391Z,50.56
2022-08-05T02:09:27.411Z,50.32
2022-08-05T02:12:05.272Z,51.19
2022-08-05T02:15:19.871Z,49.93
2022-08-05T02:18:33.179Z,49.54
2022-08-05T02:21:05.774Z,50.58
2022-08-05T02:23:42.859Z,49.93
2022-08-05T02:26:13.527Z,49.76
2022-08-05T02:28:46.925Z,49.35
2022-08-05T02:31:22.063Z,49.52
2022-08-05T02:33:57.261Z,49.22
2022-08-05T02:36:31.323Z,48.73
2022-08-05T02:39:02.257Z,48.83
2022-08-05T02:41:43.184Z,48.06
2022-08-05T02:44:24.895Z,47.73
2022-08-05T02:47:00.337Z,47.26
2022-08-05T02:49:35.842Z,47.45
2022-08-05T02:52:30.186Z,47.03
2022-08-05T02:55:01.560Z,45.51
2022-08-05T02:58:09.708Z,43.34
2022-08-05T03:00:23.219Z,40.77
2022-08-05T03:02:53.989Z,39.00
2022-08-05T03:06:54.298Z,37.49
2022-08-05T03:08:11.617Z,35.52
2022-08-05T03:11:01.153Z,33.77
2022-08-05T03:13:51.465Z,35.21
2022-08-05T03:16:21.062Z,31.61
2022-08-05T03:18:48.718Z,30.15
2022-08-05T03:21:16.294Z,29.58
2022-08-05T03:23:45.557Z,28.60
2022-08-05T03:26:32.280Z,27.43
2022-08-05T03:29:00.849Z,26.83
2022-08-05T03:31:56.509Z,26.31
2022-08-05T03:34:17.087Z,24.97
2022-08-05T03:36:44.641Z,24.77
2022-08-05T03:39:13.002Z,24.12
2022-08-05T03:41:47.958Z,23.53
2022-08-05T03:44:20.206Z,22.95
2022-08-05T03:46:47.890Z,22.56
2022-08-05T03:49:16.274Z,22.23
2022-08-05T03:52:37.587Z,21.47
2022-08-05T03:56:10.874Z,21.36
2022-08-05T03:57:51.959Z,20.83
2022-08-05T04:00:30.102Z,20.52
2022-08-05T04:03:04.335Z,19.92
2022-08-05T04:05:34.771Z,19.15
2022-08-05T04:08:05.698Z,19.08
2022-08-05T04:10:45.174Z,18.61
2022-08-05T04:13:13.033Z,18.58
2022-08-05T04:15:52.771Z,17.98
2022-08-05T04:18:28.263Z,18.01
2022-08-05T04:20:58.372Z,17.50
2022-08-05T04:23:57.182Z,16.71
2022-08-05T04:26:17.342Z,16.49
2022-08-05T04:28:51.299Z,16.42
2022-08-05T04:31:22.171Z,16.09
2022-08-05T04:34:31.295Z,16.19
2022-08-05T04:36:45.713Z,15.51
2022-08-05T04:39:18.466Z,15.18
2022-08-05T04:41:48.030Z,14.63
2022-08-05T04:44:29.069Z,14.59
2022-08-05T04:46:58.776Z,14.58
2022-08-05T04:50:01.460Z,14.33
2022-08-05T04:52:15.848Z,14.03
2022-08-05T04:54:43.355Z,13.81
2022-08-05T04:57:10.855Z,13.08
2022-08-05T04:59:40.714Z,13.42
2022-08-05T05:02:41.368Z,13.26
2022-08-05T05:05:02.710Z,12.71
2022-08-05T05:07:35.266Z,12.68
2022-08-05T05:10:06.350Z,13.12
2022-08-05T05:12:34.203Z,12.13
2022-08-05T05:15:05.991Z,11.91
2022-08-05T05:17:56.205Z,11.84
2022-08-05T05:20:28.531Z,11.83
2022-08-05T05:22:58.164Z,11.68
2022-08-05T05:25:40.550Z,11.93
2022-08-05T05:28:09.781Z,11.42
2022-08-05T05:30:38.336Z,11.32
2022-08-05T05:33:16.134Z,11.12
2022-08-05T05:35:48.428Z,10.97
2022-08-05T05:38:22.614Z,10.86
2022-08-05T05:40:57.197Z,10.77
2022-08-05T05:43:54.442Z,10.81
2022-08-05T05:46:15.935Z,10.56
2022-08-05T05:48:46.016Z,10.05
2022-08-05T05:51:22.421Z,10.26
2022-08-05T05:53:57.239Z,10.10
2022-08-05T05:56:34.824Z,9.60
2022-08-05T05:59:07.715Z,9.99
2022-08-05T06:01:39.646Z,9.63
2022-08-05T06:04:13.127Z,9.64
2022-08-05T06:06:47.360Z,9.39
2022-08-05T06:09:24.806Z,9.58
2022-08-05T06:11:59.325Z,9.79
2022-08-05T06:14:29.173Z,9.73
2022-08-05T06:16:57.182Z,10.23
2022-08-05T06:19:33.928Z,10.01
2022-08-05T06:22:01.820Z,9.93
2022-08-05T06:24:29.340Z,9.59
2022-08-05T06:26:56.783Z,9.66
2022-08-05T06:29:49.426Z,9.09
2022-08-05T06:32:20.886Z,9.62
2022-08-05T06:34:56.373Z,9.43
2022-08-05T06:37:52.307Z,9.33
2022-08-05T06:40:21.007Z,9.37
2022-08-05T06:42:52.816Z,9.64
2022-08-05T06:45:45.122Z,9.15
2022-08-05T06:48:44.140Z,8.78
2022-08-05T06:50:57.430Z,9.22
2022-08-05T06:53:28.690Z,8.57
2022-08-05T06:56:00.566Z,9.03
2022-08-05T06:58:35.023Z,9.52
2022-08-05T07:01:06.672Z,9.14
2022-08-05T07:03:34.852Z,9.27
2022-08-05T07:06:05.774Z,9.72
2022-08-05T07:08:47.772Z,9.39
2022-08-05T07:11:22.235Z,10.27
2022-08-05T07:14:15.425Z,10.35
2022-08-05T07:18:02.125Z,10.57
2022-08-05T07:22:30.207Z,10.26
2022-08-05T07:24:59.846Z,10.74
2022-08-05T07:27:57.362Z,10.73
2022-08-05T07:30:32.813Z,10.10
2022-08-05T07:33:05.432Z,10.90
2022-08-05T07:36:04.527Z,10.27
2022-08-05T07:38:34.033Z,11.15
2022-08-05T07:42:09.648Z,11.04
2022-08-05T07:43:57.810Z,11.35
2022-08-05T07:46:27.261Z,11.12
2022-08-05T07:49:03.027Z,11.94
2022-08-05T07:51:37.295Z,12.33
2022-08-05T07:54:08.369Z,12.12
2022-08-05T07:57:01.841Z,12.10
2022-08-05T07:59:38.013Z,12.01
2022-08-05T08:02:15.848Z,12.14
2022-08-05T08:04:49.428Z,12.20
2022-08-05T08:07:22.490Z,12.39
2022-08-05T08:09:52.454Z,12.22
2022-08-05T08:12:33.475Z,13.20
2022-08-05T08:15:14.069Z,12.75
2022-08-05T08:17:52.410Z,12.81
2022-08-05T08:21:00.108Z,12.78
2022-08-05T08:24:01.652Z,12.67
2022-08-05T08:26:04.508Z,12.99
2022-08-05T08:28:36.886Z,12.91
2022-08-05T08:31:10.078Z,12.97
2022-08-05T08:33:43.856Z,13.01
2022-08-05T08:36:38.761Z,13.18
2022-08-05T08:38:59.091Z,13.36
2022-08-05T08:41:51.648Z,13.23
2022-08-05T08:45:16.877Z,13.26
2022-08-05T08:47:47.454Z,13.59
2022-08-05T08:50:22.534Z,13.25
2022-08-05T08:52:54.549Z,13.51
2022-08-05T08:56:01.688Z,13.55
2022-08-05T08:58:12.901Z,13.36
2022-08-05T09:00:42.570Z,13.67
2022-08-05T09:03:16.231Z,13.95
2022-08-05T09:06:08.809Z,13.93
2022-08-05T09:08:40.223Z,13.63
2022-08-05T09:11:08.502Z,13.15
2022-08-05T09:14:01.189Z,12.96
2022-08-05T09:16:28.237Z,13.15
2022-08-05T09:18:55.739Z,13.75
2022-08-05T09:22:22.290Z,13.55
2022-08-05T09:24:13.295Z,13.91
2022-08-05T09:26:46.652Z,13.84
2022-08-05T09:29:18.392Z,14.16
2022-08-05T09:32:41.708Z,13.96
2022-08-05T09:34:55.559Z,14.12
2022-08-05T09:38:17.324Z,14.18
2022-08-05T09:40:32.152Z,13.42
2022-08-05T09:43:01.447Z,13.55
2022-08-05T09:46:06.696Z,14.06
2022-08-05T09:48:32.737Z,14.51
2022-08-05T09:51:14.803Z,14.93
2022-08-05T09:53:54.413Z,15.28
2022-08-05T09:56:33.625Z,15.24
2022-08-05T09:59:12.657Z,16.22
2022-08-05T10:01:46.759Z,16.63
2022-08-05T10:04:16.124Z,16.79
2022-08-05T10:06:59.346Z,16.53
2022-08-05T10:09:29.841Z,16.75
2022-08-05T10:12:30.088Z,16.68
2022-08-05T10:15:20.566Z,16.12
2022-08-05T10:18:12.446Z,16.65
2022-08-05T10:20:49.224Z,17.11
2022-08-05T10:23:55.351Z,17.21
2022-08-05T10:26:15.141Z,16.76
2022-08-05T10:28:45.081Z,16.93
2022-08-05T10:32:51.033Z,16.85
2022-08-05T10:34:08.097Z,17.08
2022-08-05T10:36:37.737Z,16.75
2022-08-05T10:39:25.231Z,17.30
2022-08-05T10:42:22.736Z,17.80
2022-08-05T10:45:00.460Z,17.84
2022-08-05T10:47:37.072Z,17.78
2022-08-05T10:50:32.040Z,18.05
2022-08-05T10:53:04.014Z,18.21
2022-08-05T10:55:38.552Z,18.38
2022-08-05T10:58:20.897Z,18.50
2022-08-05T11:00:55.289Z,18.53
2022-08-05T11:03:30.865Z,18.41
2022-08-05T11:06:15.755Z,18.73
2022-08-05T11:09:16.863Z,18.41
2022-08-05T11:11:52.836Z,18.70
2022-08-05T11:14:57.835Z,18.91
2022-08-05T11:17:57.014Z,18.78
2022-08-05T11:20:44.516Z,18.61
2022-08-05T11:24:05.258Z,18.72
2022-08-05T11:26:33.048Z,19.11
2022-08-05T11:29:12.007Z,19.06
2022-08-05T11:31:58.457Z,19.10
2022-08-05T11:34:39.941Z,19.04
2022-08-05T11:38:26.474Z,18.89
2022-08-05T11:41:15.456Z,18.92
2022-08-05T11:44:06.033Z,18.66
2022-08-05T11:47:10.171Z,19.64
2022-08-05T11:49:43.424Z,20.19
2022-08-05T11:52:31.013Z,20.31
2022-08-05T11:55:07.046Z,20.21
2022-08-05T11:58:07.861Z,20.43
2022-08-05T12:00:31.172Z,20.18
2022-08-05T12:02:58.886Z,20.48
2022-08-05T12:05:32.341Z,20.50
2022-08-05T12:08:09.821Z,20.61
2022-08-05T12:10:45.400Z,20.59
2022-08-05T12:13:18.779Z,21.02
2022-08-05T12:16:15.294Z,20.75
2022-08-05T12:18:49.635Z,20.85
2022-08-05T12:21:26.837Z,21.15
2022-08-05T12:24:17.155Z,21.08
2022-08-05T12:26:48.243Z,21.30
2022-08-05T12:29:25.110Z,21.40
2022-08-05T12:32:01.807Z,21.48
2022-08-05T12:34:33.843Z,21.63
2022-08-05T12:37:16.939Z,21.32
2022-08-05T12:39:51.100Z,21.63
2022-08-05T12:42:21.243Z,21.45
2022-08-05T12:44:49.479Z,21.51
2022-08-05T12:47:31.157Z,21.19
2022-08-05T12:50:03.537Z,21.29
2022-08-05T12:52:39.150Z,21.45
2022-08-05T12:55:32.975Z,21.19
2022-08-05T12:58:38.804Z,21.18
2022-08-05T13:02:01.519Z,21.53
2022-08-05T13:03:42.098Z,21.59
2022-08-05T13:06:17.401Z,21.15
2022-08-05T13:08:52.444Z,20.94
2022-08-05T13:12:01.157Z,21.24
2022-08-05T13:14:24.641Z,21.09
2022-08-05T13:17:09.750Z,21.30
2022-08-05T13:19:52.511Z,21.59
2022-08-05T13:22:28.002Z,22.01
2022-08-05T13:25:05.905Z,22.59
2022-08-05T13:27:51.552Z,23.03
2022-08-05T13:30:35.274Z,22.51
2022-08-05T13:33:04.571Z,22.84
2022-08-05T13:35:47.210Z,22.75
2022-08-05T13:38:30.283Z,22.89
2022-08-05T13:41:01.668Z,22.21
2022-08-05T13:43:44.271Z,22.74
2022-08-05T13:46:30.604Z,22.85
2022-08-05T13:49:10.146Z,22.70
2022-08-05T13:51:41.107Z,22.85
2022-08-05T13:54:15.164Z,23.09
2022-08-05T13:56:50.722Z,23.15
2022-08-05T13:59:24.577Z,23.04
2022-08-05T14:01:58.383Z,23.15
2022-08-05T14:04:51.919Z,23.35
2022-08-05T14:07:56.240Z,23.58
2022-08-05T14:10:18.434Z,23.72
2022-08-05T14:12:48.595Z,23.64
2022-08-05T14:16:04.634Z,23.74
2022-08-05T14:18:05.482Z,23.93
2022-08-05T14:20:33.125Z,23.95
2022-08-05T14:23:00.873Z,23.89
2022-08-05T14:25:33.123Z,23.77
2022-08-05T14:28:00.530Z,24.16
2022-08-05T14:30:28.405Z,24.38
2022-08-05T14:32:57.353Z,24.13
2022-08-05T14:35:36.942Z,24.56
2022-08-05T14:38:32.624Z,24.81
2022-08-05T14:41:01.698Z,25.25
2022-08-05T14:43:58.883Z,25.37
2022-08-05T14:46:21.385Z,25.83
2022-08-05T14:48:49.847Z,25.79
2022-08-05T14:51:18.143Z,25.96
2022-08-05T14:54:06.945Z,25.65
2022-08-05T14:56:38.023Z,25.83
2022-08-05T14:59:11.784Z,25.55
2022-08-05T15:01:49.141Z,25.72
2022-08-05T15:04:22.386Z,26.10
2022-08-05T15:06:51.308Z,25.99
2022-08-05T15:09:52.258Z,26.33
2022-08-05T15:12:11.664Z,26.46
2022-08-05T15:14:49.987Z,26.21
2022-08-05T15:17:45.680Z,26.51
2022-08-05T15:20:18.453Z,26.67
2022-08-05T15:22:54.091Z,26.89
2022-08-05T15:25:50.984Z,27.27
2022-08-05T15:28:15.672Z,27.26
2022-08-05T15:30:46.351Z,27.46
2022-08-05T15:34:05.568Z,27.50
2022-08-05T15:36:04.439Z,27.30
2022-08-05T15:38:40.900Z,27.64
2022-08-05T15:41:21.019Z,27.57
2022-08-05T15:43:51.410Z,27.86
2022-08-05T15:46:20.995Z,27.67
2022-08-05T15:49:00.661Z,27.46
2022-08-05T15:52:04.401Z,27.96
2022-08-05T15:54:35.093Z,27.59
2022-08-05T15:57:07.529Z,27.80
2022-08-05T15:59:38.243Z,27.85
2022-08-05T16:02:09.590Z,28.21
2022-08-05T16:04:44.034Z,28.46
2022-08-05T16:07:11.896Z,28.53
2022-08-05T16:09:41.489Z,28.36
2022-08-05T16:12:10.045Z,28.44
2022-08-05T16:14:39.592Z,28.64
2022-08-05T16:17:07.295Z,28.94
2022-08-05T16:20:04.269Z,29.22
2022-08-05T16:22:27.880Z,29.33
2022-08-05T16:25:07.924Z,29.08
2022-08-05T16:28:01.063Z,29.40
2022-08-05T16:30:29.060Z,29.43
2022-08-05T16:33:00.678Z,29.26
2022-08-05T16:35:32.400Z,29.75
2022-08-05T16:38:24.326Z,29.67
2022-08-05T16:40:55.378Z,29.90
2022-08-05T16:43:31.909Z,29.93
2022-08-05T16:46:03.930Z,29.77
2022-08-05T16:48:38.474Z,29.90
2022-08-05T16:51:09.769Z,30.10
2022-08-05T16:54:04.365Z,30.04
2022-08-05T16:56:29.671Z,29.91
2022-08-05T16:58:58.851Z,29.92
2022-08-05T17:01:52.846Z,30.23
2022-08-05T17:04:15.957Z,30.09
2022-08-05T17:06:46.223Z,29.95
2022-08-05T17:09:21.626Z,30.27
2022-08-05T17:11:55.933Z,30.78
2022-08-05T17:14:36.942Z,31.09
2022-08-05T17:17:09.422Z,31.32
2022-08-05T17:19:45.649Z,31.51
2022-08-05T17:22:24.892Z,31.42
2022-08-05T17:24:58.792Z,32.15
2022-08-05T17:27:33.922Z,31.52
2022-08-05T17:30:11.858Z,31.69
2022-08-05T17:32:40.077Z,31.72
2022-08-05T17:35:12.234Z,31.73
2022-08-05T17:37:45.498Z,31.90
2022-08-05T17:40:17.895Z,31.76
2022-08-05T17:42:51.808Z,32.18
2022-08-05T17:45:22.225Z,32.16
2022-08-05T17:47:55.056Z,32.13
2022-08-05T17:50:28.474Z,31.11
2022-08-05T17:53:04.639Z,32.85
2022-08-05T17:55:37.376Z,32.38
2022-08-05T17:58:13.430Z,33.23
2022-08-05T18:00:47.053Z,32.76
2022-08-05T18:03:56.071Z,32.63
2022-08-05T18:06:12.160Z,32.79
2022-08-05T18:08:45.511Z,32.90
2022-08-05T18:11:23.876Z,33.56
2022-08-05T18:13:52.660Z,34.06
2022-08-05T18:16:20.753Z,33.57
2022-08-05T18:18:50.049Z,33.77
2022-08-05T18:21:19.615Z,34.11
2022-08-05T18:23:48.943Z,34.19
2022-08-05T18:26:27.563Z,34.56
2022-08-05T18:28:57.430Z,34.24
2022-08-05T18:31:25.297Z,34.75
2022-08-05T18:33:54.048Z,34.92
2022-08-05T18:36:27.829Z,35.37
2022-08-05T18:38:56.252Z,35.20
2022-08-05T18:41:58.336Z,35.40
2022-08-05T18:44:12.735Z,35.22
2022-08-05T18:46:41.005Z,35.38
2022-08-05T18:49:30.354Z,35.66
2022-08-05T18:52:17.344Z,36.02
2022-08-05T18:55:01.563Z,36.12
2022-08-05T18:57:50.178Z,36.29
2022-08-05T19:00:20.215Z,36.63
2022-08-05T19:02:48.580Z,36.64
2022-08-05T19:06:13.455Z,36.92
2022-08-05T19:08:13.510Z,37.70
2022-08-05T19:10:42.803Z,37.09
2022-08-05T19:13:12.383Z,38.00
2022-08-05T19:15:59.879Z,38.00
2022-08-05T19:18:31.907Z,38.11
2022-08-05T19:20:59.907Z,38.41
2022-08-05T19:24:07.034Z,38.36
2022-08-05T19:26:16.797Z,38.79
2022-08-05T19:28:44.780Z,39.42
2022-08-05T19:31:17.858Z,39.32
2022-08-05T19:33:48.642Z,39.24
2022-08-05T19:36:29.238Z,40.70
2022-08-05T19:39:00.975Z,40.34
2022-08-05T19:42:05.689Z,40.32
2022-08-05T19:44:19.471Z,40.41
2022-08-05T19:46:47.819Z,40.46
2022-08-05T19:49:18.218Z,40.44
2022-08-05T19:52:04.459Z,40.86
2022-08-05T19:54:35.153Z,41.04
2022-08-05T19:57:06.512Z,41.02
2022-08-05T20:00:00.732Z,41.25
2022-08-05T20:02:31.478Z,41.24
2022-08-05T20:04:59.780Z,41.02
2022-08-05T20:07:47.437Z,41.43
2022-08-05T20:10:19.455Z,41.33
2022-08-05T20:12:50.020Z,41.62
2022-08-05T20:15:47.728Z,41.74
2022-08-05T20:18:10.652Z,42.28
2022-08-05T20:20:56.313Z,42.32
2022-08-05T20:23:39.525Z,42.39
2022-08-05T20:26:16.020Z,42.34
2022-08-05T20:28:46.340Z,42.93
2022-08-05T20:31:16.698Z,42.50
2022-08-05T20:33:45.259Z,42.65
2022-08-05T20:36:14.387Z,43.14
2022-08-05T20:38:53.573Z,42.99
2022-08-05T20:41:27.416Z,43.06
2022-08-05T20:44:18.579Z,43.18
2022-08-05T20:46:48.201Z,43.50
2022-08-05T20:49:24.097Z,43.63
2022-08-05T20:51:53.511Z,43.99
2022-08-05T20:54:25.777Z,43.81
2022-08-05T20:57:14.447Z,44.04
2022-08-05T21:00:11.170Z,44.24
2022-08-05T21:02:37.462Z,44.30
2022-08-05T21:05:09.287Z,44.54
2022-08-05T21:07:50.958Z,44.21
2022-08-05T21:10:20.877Z,44.28
2022-08-05T21:12:57.774Z,44.18
2022-08-05T21:15:32.956Z,44.28
2022-08-05T21:18:02.178Z,44.31
2022-08-05T21:20:33.562Z,44.63
2022-08-05T21:23:02.905Z,44.84
2022-08-05T21:25:33.730Z,44.61
2022-08-05T21:28:03.449Z,44.97
2022-08-05T21:30:31.861Z,44.98
2022-08-05T21:33:01.757Z,45.05
2022-08-05T21:35:43.680Z,45.39
2022-08-05T21:38:19.492Z,45.47
2022-08-05T21:40:47.072Z,45.83
2022-08-05T21:43:24.099Z,45.66
2022-08-05T21:45:57.642Z,46.14
2022-08-05T21:48:29.240Z,46.93
2022-08-05T21:50:59.658Z,46.96
2022-08-05T21:53:27.871Z,47.09
2022-08-05T21:56:06.191Z,47.60
2022-08-05T21:58:42.353Z,47.48
2022-08-05T22:01:24.782Z,47.55
2022-08-05T22:03:53.665Z,47.39
2022-08-05T22:06:35.671Z,47.62
2022-08-05T22:09:13.997Z,47.32
2022-08-05T22:11:47.023Z,47.69
2022-08-05T22:14:34.994Z,47.75
2022-08-05T22:17:06.670Z,47.95
2022-08-05T22:20:00.696Z,48.32
2022-08-05T22:22:28.098Z,48.42
2022-08-05T22:25:21.228Z,49.03
2022-08-05T22:28:10.603Z,49.92
2022-08-05T22:30:55.805Z,50.51
2022-08-05T22:33:56.974Z,50.75
2022-08-05T22:36:15.844Z,50.04
2022-08-05T22:38:48.750Z,50.79
2022-08-05T22:41:26.208Z,52.19
2022-08-05T22:44:08.886Z,50.53
2022-08-05T22:46:40.247Z,50.31
2022-08-05T22:50:18.361Z,52.19
2022-08-05T22:52:06.527Z,50.11
2022-08-05T22:54:36.673Z,50.43
2022-08-05T22:57:05.834Z,51.36
2022-08-05T22:59:44.305Z,50.78
2022-08-05T23:02:17.148Z,48.65
2022-08-05T23:04:52.111Z,50.62
2022-08-05T23:07:21.901Z,50.55
2022-08-05T23:09:57.701Z,51.13
2022-08-05T23:12:32.612Z,50.67
2022-08-05T23:15:03.603Z,51.71
2022-08-05T23:17:37.097Z,51.03
2022-08-05T23:20:10.227Z,52.39
2022-08-05T23:22:47.189Z,51.35
2022-08-05T23:25:51.257Z,51.59
2022-08-05T23:28:07.718Z,52.04
2022-08-05T23:30:39.564Z,53.66
2022-08-05T23:33:16.079Z,51.78
2022-08-05T23:35:51.373Z,52.58
2022-08-05T23:38:18.803Z,52.29
2022-08-05T23:40:49.543Z,52.63
2022-08-05T23:43:25.685Z,53.23
2022-08-05T23:46:20.201Z,54.45
2022-08-05T23:49:00.817Z,55.52
2022-08-05T23:51:55.101Z,55.87
2022-08-05T23:54:25.636Z,53.34
2022-08-05T23:57:03.460Z,55.76
